createdAt,value
2019-03-18T00:01:11.468Z,72.70
2019-03-18T00:03:40.198Z,73.40
2019-03-18T00:06:08.921Z,73.50
2019-03-18T00:08:37.677Z,72.40
2019-03-18T00:11:06.461Z,72.90
2019-03-18T00:13:35.193Z,72.90
2019-03-18T00:16:03.919Z,72.50
2019-03-18T00:18:32.636Z,72.80
2019-03-18T00:21:01.351Z,73.00
2019-03-18T00:23:30.086Z,73.30
2019-03-18T00:25:58.790Z,73.70
2019-03-18T00:28:27.498Z,73.50
2019-03-18T00:30:56.230Z,73.40
2019-03-18T00:33:24.943Z,73.20
2019-03-18T00:35:53.730Z,73.60
2019-03-18T00:38:22.463Z,73.70
2019-03-18T00:40:51.179Z,73.40
2019-03-18T00:43:19.966Z,73.20
2019-03-18T00:45:48.772Z,73.60
2019-03-18T00:48:17.505Z,73.70
2019-03-18T00:50:46.279Z,74.30
2019-03-18T00:53:15.021Z,74.00
2019-03-18T00:55:43.750Z,73.80
2019-03-18T00:58:12.462Z,73.70
2019-03-18T01:00:41.207Z,73.70
2019-03-18T01:03:09.935Z,73.70
2019-03-18T01:05:38.721Z,73.50
2019-03-18T01:08:07.470Z,73.40
2019-03-18T01:10:36.201Z,73.10
2019-03-18T01:13:04.905Z,73.30
2019-03-18T01:15:33.641Z,72.00
2019-03-18T01:18:02.354Z,72.80
2019-03-18T01:20:31.138Z,72.70
2019-03-18T01:22:59.861Z,72.70
2019-03-18T01:25:28.589Z,72.60
2019-03-18T01:27:57.380Z,72.20
2019-03-18T01:30:26.177Z,71.80
2019-03-18T01:32:54.904Z,71.70
2019-03-18T01:35:23.611Z,71.80
2019-03-18T01:37:52.350Z,71.70
2019-03-18T01:40:21.058Z,71.80
2019-03-18T01:42:49.762Z,72.10
2019-03-18T01:45:18.482Z,71.30
2019-03-18T01:47:47.194Z,71.20
2019-03-18T01:50:15.912Z,71.50
2019-03-18T01:52:44.723Z,72.20
2019-03-18T01:55:13.597Z,71.70
2019-03-18T01:57:42.373Z,71.50
2019-03-18T02:00:11.237Z,71.20
2019-03-18T02:02:40.043Z,71.50
2019-03-18T02:05:08.901Z,71.90
2019-03-18T02:07:37.631Z,72.10
2019-03-18T02:10:07.370Z,71.50
2019-03-18T02:12:36.098Z,71.50
2019-03-18T02:15:04.974Z,70.60
2019-03-18T02:17:33.694Z,70.40
2019-03-18T02:20:02.432Z,71.50
2019-03-18T02:22:31.170Z,71.10
2019-03-18T02:24:59.884Z,71.10
2019-03-18T02:27:28.602Z,71.50
2019-03-18T02:29:57.327Z,70.70
2019-03-18T02:32:26.023Z,71.00
2019-03-18T02:34:54.752Z,71.60
2019-03-18T02:37:23.556Z,71.30
2019-03-18T02:39:52.348Z,71.20
2019-03-18T02:42:21.062Z,70.60
2019-03-18T02:44:49.813Z,71.10
2019-03-18T02:47:18.605Z,70.80
2019-03-18T02:49:47.329Z,70.80
2019-03-18T02:52:16.141Z,71.00
2019-03-18T02:54:44.917Z,70.50
2019-03-18T02:57:13.668Z,70.80
2019-03-18T02:59:42.509Z,70.80
2019-03-18T03:02:11.301Z,70.90
2019-03-18T03:04:40.093Z,71.60
2019-03-18T03:07:08.928Z,70.80
2019-03-18T03:09:37.654Z,70.80
2019-03-18T03:12:06.444Z,71.10
2019-03-18T03:14:35.262Z,71.60
2019-03-18T03:17:04.003Z,71.20
2019-03-18T03:19:32.810Z,71.50
2019-03-18T03:22:01.527Z,72.30
2019-03-18T03:24:30.730Z,72.40
2019-03-18T03:26:59.457Z,72.20
2019-03-18T03:29:28.174Z,71.60
2019-03-18T03:31:56.913Z,71.60
2019-03-18T03:34:25.630Z,71.80
2019-03-18T03:36:54.414Z,71.30
2019-03-18T03:39:23.123Z,71.50
2019-03-18T03:41:51.873Z,72.00
2019-03-18T03:44:20.584Z,72.20
2019-03-18T03:46:49.404Z,73.40
2019-03-18T03:49:18.241Z,72.70
2019-03-18T03:51:47.050Z,72.70
2019-03-18T03:54:15.855Z,72.90
2019-03-18T03:56:44.634Z,72.70
2019-03-18T03:59:13.480Z,72.80
2019-03-18T04:01:42.178Z,73.00
2019-03-18T04:04:10.901Z,73.30
2019-03-18T04:06:39.638Z,74.00
2019-03-18T04:09:08.442Z,74.30
2019-03-18T04:11:37.289Z,74.90
2019-03-18T04:14:06.094Z,74.10
2019-03-18T04:16:34.840Z,74.80
2019-03-18T04:19:03.658Z,73.60
2019-03-18T04:21:32.483Z,73.60
2019-03-18T04:24:01.197Z,74.30
2019-03-18T04:26:29.936Z,73.80
2019-03-18T04:28:58.750Z,74.40
2019-03-18T04:31:27.534Z,75.00
2019-03-18T04:33:56.335Z,74.60
2019-03-18T04:36:25.054Z,74.80
2019-03-18T04:38:53.809Z,74.90
2019-03-18T04:41:22.586Z,75.10
2019-03-18T04:43:51.298Z,75.60
2019-03-18T04:46:20.110Z,75.50
2019-03-18T04:48:48.822Z,75.50
2019-03-18T04:51:17.638Z,76.50
2019-03-18T04:53:46.355Z,75.90
2019-03-18T04:56:15.091Z,75.00
2019-03-18T04:58:43.830Z,74.90
2019-03-18T05:01:12.551Z,75.40
2019-03-18T05:03:41.271Z,75.30
2019-03-18T05:06:09.975Z,74.50
2019-03-18T05:08:38.715Z,74.80
2019-03-18T05:11:07.439Z,74.50
2019-03-18T05:13:36.206Z,74.60
2019-03-18T05:16:05.088Z,74.00
2019-03-18T05:18:36.515Z,74.60
2019-03-18T05:21:04.266Z,74.70
2019-03-18T05:23:32.974Z,75.30
2019-03-18T05:26:01.707Z,75.40
2019-03-18T05:28:30.498Z,74.70
2019-03-18T05:30:59.290Z,74.40
2019-03-18T05:33:28.003Z,74.80
2019-03-18T05:35:56.720Z,75.50
2019-03-18T05:38:25.418Z,75.90
2019-03-18T05:40:54.147Z,75.50
2019-03-18T05:43:22.855Z,75.60
2019-03-18T05:45:51.583Z,75.60
2019-03-18T05:48:20.303Z,76.00
2019-03-18T05:50:49.041Z,75.50
2019-03-18T05:53:17.752Z,75.80
2019-03-18T05:55:46.485Z,76.20
2019-03-18T05:58:15.212Z,76.00
2019-03-18T06:00:43.945Z,75.40
2019-03-18T06:03:12.658Z,75.10
2019-03-18T06:05:41.470Z,75.10
2019-03-18T06:08:11.597Z,75.30
2019-03-18T06:10:40.689Z,75.80
2019-03-18T06:13:09.475Z,75.90
2019-03-18T06:15:38.199Z,75.50
2019-03-18T06:18:06.915Z,75.00
2019-03-18T06:20:35.639Z,74.80
2019-03-18T06:23:04.381Z,74.80
2019-03-18T06:25:33.099Z,74.60
2019-03-18T06:28:01.900Z,73.90
2019-03-18T06:30:30.601Z,73.70
2019-03-18T06:32:59.338Z,73.70
2019-03-18T06:35:28.042Z,73.90
2019-03-18T06:37:56.802Z,73.60
2019-03-18T06:40:25.510Z,73.60
2019-03-18T06:42:54.239Z,74.00
2019-03-18T06:45:22.949Z,73.30
2019-03-18T06:48:03.787Z,73.20
2019-03-18T06:50:22.225Z,74.00
2019-03-18T06:52:50.963Z,73.90
2019-03-18T06:55:19.678Z,73.40
2019-03-18T06:57:48.397Z,73.70
2019-03-18T07:00:17.123Z,73.50
2019-03-18T07:02:45.846Z,72.90
2019-03-18T07:05:14.666Z,72.80
2019-03-18T07:07:43.417Z,73.20
2019-03-18T07:10:12.231Z,73.50
2019-03-18T07:12:41.076Z,72.90
2019-03-18T07:15:10.284Z,72.50
2019-03-18T07:17:39.057Z,72.50
2019-03-18T07:20:08.650Z,72.30
2019-03-18T07:22:37.595Z,72.40
2019-03-18T07:25:06.521Z,72.00
2019-03-18T07:27:54.581Z,72.40
2019-03-18T07:30:23.385Z,72.10
2019-03-18T07:32:52.112Z,71.50
2019-03-18T07:35:20.910Z,71.90
2019-03-18T07:37:49.651Z,71.40
2019-03-18T07:40:18.394Z,70.50
2019-03-18T07:42:47.201Z,70.50
2019-03-18T07:45:16.363Z,70.50
2019-03-18T07:47:45.414Z,70.20
2019-03-18T07:50:14.121Z,70.10
2019-03-18T07:52:42.868Z,70.60
2019-03-18T07:55:11.605Z,70.80
2019-03-18T07:57:40.313Z,72.00
2019-03-18T08:00:09.750Z,71.80
2019-03-18T08:02:38.484Z,71.20
2019-03-18T08:05:07.808Z,71.60
2019-03-18T08:07:36.618Z,70.90
2019-03-18T08:10:05.419Z,70.30
2019-03-18T08:12:37.297Z,69.90
2019-03-18T08:15:07.433Z,69.50
2019-03-18T08:17:36.219Z,69.60
2019-03-18T08:20:05.084Z,69.90
2019-03-18T08:22:33.818Z,70.00
2019-03-18T08:25:02.542Z,70.40
2019-03-18T08:27:31.292Z,70.90
2019-03-18T08:30:02.455Z,71.10
2019-03-18T08:32:31.195Z,71.50
2019-03-18T08:34:59.894Z,71.90
2019-03-18T08:37:28.623Z,72.50
2019-03-18T08:39:57.359Z,72.40
2019-03-18T08:42:26.095Z,72.20
2019-03-18T08:44:54.807Z,72.60
2019-03-18T08:47:23.557Z,73.30
2019-03-18T08:49:52.345Z,72.40
2019-03-18T08:52:21.063Z,72.00
2019-03-18T08:54:49.802Z,72.30
2019-03-18T08:57:18.528Z,72.70
2019-03-18T08:59:47.347Z,72.70
2019-03-18T09:02:16.050Z,71.00
2019-03-18T09:04:44.779Z,71.60
2019-03-18T09:07:13.500Z,71.80
2019-03-18T09:09:42.236Z,71.50
2019-03-18T09:12:11.045Z,71.70
2019-03-18T09:14:40.619Z,72.20
2019-03-18T09:17:09.355Z,71.40
2019-03-18T09:19:38.101Z,70.80
2019-03-18T09:22:06.817Z,71.40
2019-03-18T09:24:35.641Z,71.80
2019-03-18T09:27:04.367Z,71.80
2019-03-18T09:29:33.120Z,71.20
2019-03-18T09:32:01.842Z,70.80
2019-03-18T09:34:30.594Z,69.40
2019-03-18T09:36:59.355Z,69.40
2019-03-18T09:39:28.096Z,69.30
2019-03-18T09:41:56.842Z,69.20
2019-03-18T09:44:25.565Z,69.30
2019-03-18T09:46:54.309Z,68.90
2019-03-18T09:49:23.054Z,70.00
2019-03-18T09:51:51.774Z,70.00
2019-03-18T09:54:20.497Z,70.90
2019-03-18T09:56:49.251Z,71.30
2019-03-18T09:59:18.121Z,74.30
2019-03-18T10:01:46.874Z,73.20
2019-03-18T10:04:15.594Z,73.70
2019-03-18T10:06:44.310Z,74.40
2019-03-18T10:09:13.058Z,74.80
2019-03-18T10:11:41.838Z,74.50
2019-03-18T10:14:10.658Z,75.40
2019-03-18T10:16:39.375Z,72.50
2019-03-18T10:19:08.174Z,72.90
2019-03-18T10:21:36.918Z,72.20
2019-03-18T10:24:05.637Z,69.30
2019-03-18T10:26:34.454Z,67.40
2019-03-18T10:29:03.278Z,66.70
2019-03-18T10:31:32.079Z,66.40
2019-03-18T10:34:00.803Z,64.70
2019-03-18T10:36:29.513Z,62.30
2019-03-18T10:38:58.317Z,62.20
2019-03-18T10:41:27.199Z,61.40
2019-03-18T10:43:55.924Z,60.70
2019-03-18T10:46:26.349Z,60.30
2019-03-18T10:48:55.342Z,58.90
2019-03-18T10:51:24.090Z,59.50
2019-03-18T10:53:52.845Z,58.40
2019-03-18T10:56:21.618Z,58.10
2019-03-18T10:58:50.344Z,64.50
2019-03-18T11:01:19.168Z,68.90
2019-03-18T11:03:47.883Z,72.80
2019-03-18T11:06:16.703Z,74.80
2019-03-18T11:08:45.435Z,75.10
2019-03-18T11:11:14.175Z,74.60
2019-03-18T11:13:42.984Z,73.40
2019-03-18T11:16:11.790Z,71.80
2019-03-18T11:18:40.529Z,71.00
2019-03-18T11:21:09.262Z,69.40
2019-03-18T11:23:38.090Z,68.30
2019-03-18T11:26:06.794Z,66.60
2019-03-18T11:28:35.534Z,65.50
2019-03-18T11:31:04.286Z,63.70
2019-03-18T11:33:33.021Z,64.40
2019-03-18T11:36:01.801Z,63.40
2019-03-18T11:38:31.980Z,63.50
2019-03-18T11:41:01.069Z,61.50
2019-03-18T11:43:29.808Z,56.10
2019-03-18T11:45:58.517Z,55.70
2019-03-18T11:48:27.267Z,56.00
2019-03-18T11:50:55.987Z,55.90
2019-03-18T11:53:24.727Z,56.10
2019-03-18T11:55:53.547Z,56.00
2019-03-18T11:58:22.351Z,56.40
2019-03-18T12:00:51.086Z,56.20
2019-03-18T12:03:19.820Z,55.80
2019-03-18T12:05:48.642Z,55.30
2019-03-18T12:08:17.383Z,55.50
2019-03-18T12:10:46.122Z,54.80
2019-03-18T12:13:14.934Z,53.30
2019-03-18T12:15:43.740Z,52.30
2019-03-18T12:18:12.469Z,52.20
2019-03-18T12:20:41.266Z,52.30
2019-03-18T12:23:09.987Z,52.50
2019-03-18T12:25:38.718Z,52.90
2019-03-18T12:28:07.519Z,52.80
2019-03-18T12:30:36.252Z,53.20
2019-03-18T12:33:05.243Z,52.90
2019-03-18T12:35:33.955Z,52.90
2019-03-18T12:38:02.702Z,52.60
2019-03-18T12:40:31.431Z,52.60
2019-03-18T12:43:00.195Z,52.90
2019-03-18T12:45:28.920Z,52.80
2019-03-18T12:47:57.736Z,52.30
2019-03-18T12:50:43.015Z,53.80
2019-03-18T12:52:56.923Z,54.60
2019-03-18T12:55:25.638Z,55.30
2019-03-18T12:57:54.391Z,55.60
2019-03-18T13:00:23.175Z,55.80
2019-03-18T13:02:51.893Z,56.20
2019-03-18T13:05:20.693Z,57.00
2019-03-18T13:07:49.530Z,56.70
2019-03-18T13:10:21.239Z,56.50
2019-03-18T13:12:48.689Z,57.40
2019-03-18T13:15:17.411Z,58.20
2019-03-18T13:17:46.130Z,59.10
2019-03-18T13:20:14.863Z,60.50
2019-03-18T13:22:43.599Z,60.70
2019-03-18T13:25:12.327Z,61.00
2019-03-18T13:27:41.055Z,60.00
2019-03-18T13:30:15.202Z,59.10
2019-03-18T13:32:42.661Z,58.40
2019-03-18T13:35:11.390Z,58.40
2019-03-18T13:37:40.136Z,56.80
2019-03-18T13:40:09.847Z,55.80
2019-03-18T13:42:38.594Z,52.70
2019-03-18T13:45:09.373Z,51.40
2019-03-18T13:47:38.113Z,53.10
2019-03-18T13:50:08.275Z,50.40
2019-03-18T13:52:37.031Z,48.40
2019-03-18T13:55:05.858Z,49.00
2019-03-18T13:57:34.668Z,49.50
2019-03-18T14:00:03.507Z,48.00
2019-03-18T14:02:32.214Z,46.90
2019-03-18T14:05:00.930Z,44.60
2019-03-18T14:07:29.662Z,42.90
2019-03-18T14:09:58.380Z,43.20
2019-03-18T14:12:27.090Z,44.70
2019-03-18T14:14:55.820Z,45.50
2019-03-18T14:17:24.533Z,43.60
2019-03-18T14:19:53.275Z,42.00
2019-03-18T14:22:22.005Z,39.00
2019-03-18T14:24:50.818Z,37.90
2019-03-18T14:27:22.389Z,36.20
2019-03-18T14:29:51.118Z,35.90
2019-03-18T14:32:19.850Z,35.30
2019-03-18T14:34:48.580Z,35.20
2019-03-18T14:37:17.379Z,35.90
2019-03-18T14:39:46.157Z,36.40
2019-03-18T14:42:14.901Z,35.60
2019-03-18T14:44:43.641Z,37.20
2019-03-18T14:47:12.384Z,37.50
2019-03-18T14:49:41.089Z,39.60
2019-03-18T14:52:09.833Z,41.10
2019-03-18T14:54:38.545Z,42.60
2019-03-18T14:57:07.278Z,43.40
2019-03-18T14:59:55.306Z,43.80
2019-03-18T15:02:24.073Z,43.50
2019-03-18T15:04:52.778Z,44.60
2019-03-18T15:07:21.540Z,45.90
2019-03-18T15:09:50.246Z,46.60
2019-03-18T15:12:19.072Z,47.10
2019-03-18T15:14:47.924Z,48.40
2019-03-18T15:17:16.661Z,48.20
2019-03-18T15:19:45.383Z,48.80
2019-03-18T15:22:14.162Z,49.00
2019-03-18T15:24:42.875Z,49.00
2019-03-18T15:27:11.610Z,49.60
2019-03-18T15:29:40.326Z,49.30
2019-03-18T15:32:09.094Z,50.00
2019-03-18T15:34:37.834Z,50.00
2019-03-18T15:37:06.618Z,50.30
2019-03-18T15:39:35.337Z,50.40
2019-03-18T15:42:04.067Z,50.00
2019-03-18T15:44:32.804Z,49.80
2019-03-18T15:47:01.556Z,49.40
2019-03-18T15:49:30.276Z,49.60
2019-03-18T15:52:10.418Z,49.60
2019-03-18T15:54:29.520Z,50.30
2019-03-18T15:56:58.266Z,49.80
2019-03-18T15:59:27.115Z,49.70
2019-03-18T16:01:55.901Z,50.50
2019-03-18T16:04:24.618Z,49.80
2019-03-18T16:06:53.318Z,51.00
2019-03-18T16:09:22.050Z,54.10
2019-03-18T16:11:50.771Z,55.60
2019-03-18T16:14:19.559Z,56.90
2019-03-18T16:17:01.045Z,58.00
2019-03-18T16:19:18.729Z,58.50
2019-03-18T16:21:47.451Z,59.10
2019-03-18T16:24:17.251Z,59.30
2019-03-18T16:26:46.192Z,59.40
2019-03-18T16:29:14.985Z,60.20
2019-03-18T16:31:43.813Z,59.90
2019-03-18T16:34:12.532Z,60.30
2019-03-18T16:36:41.266Z,59.30
2019-03-18T16:39:09.972Z,59.10
2019-03-18T16:41:38.690Z,59.00
2019-03-18T16:44:07.418Z,59.60
2019-03-18T16:46:36.162Z,59.50
2019-03-18T16:49:04.879Z,59.30
2019-03-18T16:51:33.601Z,59.40
2019-03-18T16:54:02.331Z,59.60
2019-03-18T16:56:31.062Z,60.00
2019-03-18T16:58:59.874Z,62.20
2019-03-18T17:01:28.613Z,63.60
2019-03-18T17:03:57.361Z,65.30
2019-03-18T17:06:26.149Z,66.00
2019-03-18T17:08:54.913Z,67.40
2019-03-18T17:11:23.636Z,68.20
2019-03-18T17:13:52.419Z,68.40
2019-03-18T17:16:21.310Z,68.40
2019-03-18T17:18:50.050Z,68.00
2019-03-18T17:21:18.792Z,68.40
2019-03-18T17:23:47.602Z,68.30
2019-03-18T17:26:16.426Z,68.00
2019-03-18T17:28:45.141Z,68.00
2019-03-18T17:31:13.911Z,68.10
2019-03-18T17:33:42.755Z,68.10
2019-03-18T17:36:11.527Z,68.30
2019-03-18T17:38:40.473Z,68.90
2019-03-18T17:41:09.523Z,69.40
2019-03-18T17:43:38.455Z,68.90
2019-03-18T17:46:07.238Z,69.10
2019-03-18T17:48:36.104Z,69.30
2019-03-18T17:51:04.876Z,69.80
2019-03-18T17:53:33.744Z,69.90
2019-03-18T17:56:02.519Z,70.10
2019-03-18T17:58:31.359Z,70.00
2019-03-18T18:01:00.858Z,70.60
2019-03-18T18:03:29.752Z,70.20
2019-03-18T18:05:58.588Z,70.10
2019-03-18T18:08:27.392Z,70.40
2019-03-18T18:10:56.177Z,70.90
2019-03-18T18:13:25.066Z,70.90
2019-03-18T18:15:53.810Z,70.40
2019-03-18T18:18:22.628Z,70.80
2019-03-18T18:20:51.466Z,71.40
2019-03-18T18:23:20.249Z,71.70
2019-03-18T18:25:49.019Z,72.20
2019-03-18T18:28:17.910Z,72.20
2019-03-18T18:30:46.698Z,71.80
2019-03-18T18:33:15.618Z,71.50
2019-03-18T18:35:44.342Z,71.30
2019-03-18T18:38:13.091Z,72.20
2019-03-18T18:40:41.814Z,72.20
2019-03-18T18:43:10.576Z,72.10
2019-03-18T18:45:39.316Z,71.80
2019-03-18T18:48:08.082Z,72.50
2019-03-18T18:50:36.885Z,72.70
2019-03-18T18:53:05.617Z,73.00
2019-03-18T18:55:34.384Z,72.90
2019-03-18T18:58:03.164Z,73.00
2019-03-18T19:00:31.924Z,72.60
2019-03-18T19:03:00.749Z,72.70
2019-03-18T19:05:29.496Z,72.90
2019-03-18T19:07:58.374Z,72.90
2019-03-18T19:10:27.109Z,72.60
2019-03-18T19:12:55.861Z,72.80
2019-03-18T19:15:24.634Z,72.20
2019-03-18T19:17:53.361Z,72.30
2019-03-18T19:20:22.170Z,72.60
2019-03-18T19:22:50.923Z,72.70
2019-03-18T19:25:19.687Z,72.40
2019-03-18T19:27:48.425Z,72.50
2019-03-18T19:30:17.943Z,72.40
2019-03-18T19:32:46.702Z,72.00
2019-03-18T19:35:15.431Z,71.50
2019-03-18T19:37:44.207Z,70.70
2019-03-18T19:40:13.583Z,72.70
2019-03-18T19:42:42.364Z,72.60
2019-03-18T19:45:11.990Z,71.50
2019-03-18T19:47:40.750Z,71.30
2019-03-18T19:50:11.899Z,70.90
2019-03-18T19:52:40.646Z,70.70
2019-03-18T19:55:09.657Z,70.70
2019-03-18T19:57:38.416Z,70.80
2019-03-18T20:00:09.136Z,70.70
2019-03-18T20:02:38.068Z,70.80
2019-03-18T20:05:14.941Z,71.40
2019-03-18T20:07:39.017Z,70.80
2019-03-18T20:10:09.391Z,70.60
2019-03-18T20:12:38.137Z,70.70
2019-03-18T20:15:07.498Z,71.10
2019-03-18T20:17:36.299Z,71.00
2019-03-18T20:20:05.948Z,71.50
2019-03-18T20:22:34.682Z,72.20
2019-03-18T20:25:03.429Z,72.40
2019-03-18T20:27:32.238Z,73.10
2019-03-18T20:30:01.144Z,72.40
2019-03-18T20:32:29.872Z,73.00
2019-03-18T20:34:58.583Z,73.30
2019-03-18T20:37:27.345Z,73.70
2019-03-18T20:39:56.057Z,74.10
2019-03-18T20:42:24.863Z,74.00
2019-03-18T20:44:53.912Z,74.20
2019-03-18T20:47:22.738Z,75.00
2019-03-18T20:49:51.516Z,75.10
2019-03-18T20:52:20.269Z,74.80
2019-03-18T20:54:48.991Z,74.90
2019-03-18T20:57:17.803Z,75.00
2019-03-18T20:59:46.614Z,75.50
2019-03-18T21:02:15.343Z,74.70
2019-03-18T21:04:44.116Z,74.90
2019-03-18T21:07:12.953Z,74.50
2019-03-18T21:09:41.710Z,75.20
2019-03-18T21:12:10.444Z,75.60
2019-03-18T21:14:39.328Z,75.70
2019-03-18T21:17:08.110Z,75.70
2019-03-18T21:19:36.843Z,75.70
2019-03-18T21:22:05.743Z,75.60
2019-03-18T21:24:34.501Z,76.00
2019-03-18T21:27:03.311Z,76.10
2019-03-18T21:29:32.150Z,76.20
2019-03-18T21:32:00.944Z,75.80
2019-03-18T21:34:29.696Z,75.90
2019-03-18T21:36:58.536Z,75.30
2019-03-18T21:39:27.324Z,75.10
2019-03-18T21:41:56.124Z,74.90
2019-03-18T21:44:24.954Z,75.40
2019-03-18T21:46:53.716Z,74.30
2019-03-18T21:49:22.463Z,74.10
2019-03-18T21:51:51.210Z,74.20
2019-03-18T21:54:19.946Z,74.00
2019-03-18T21:56:48.687Z,74.20
2019-03-18T21:59:17.493Z,74.50
2019-03-18T22:01:46.247Z,74.60
2019-03-18T22:04:15.109Z,74.40
2019-03-18T22:06:43.926Z,74.10
2019-03-18T22:09:12.674Z,73.70
2019-03-18T22:11:41.567Z,74.20
2019-03-18T22:14:10.408Z,74.50
2019-03-18T22:16:39.124Z,74.70
2019-03-18T22:19:07.850Z,75.00
2019-03-18T22:21:36.650Z,74.90
2019-03-18T22:24:05.378Z,74.80
2019-03-18T22:26:34.353Z,74.70
2019-03-18T22:29:03.234Z,75.40
2019-03-18T22:31:32.053Z,74.80
2019-03-18T22:34:00.799Z,75.10
2019-03-18T22:36:29.527Z,76.10
2019-03-18T22:38:58.313Z,75.00
2019-03-18T22:41:27.095Z,75.30
2019-03-18T22:43:55.840Z,75.60
2019-03-18T22:46:24.566Z,75.80
2019-03-18T22:48:53.440Z,75.50
2019-03-18T22:51:22.284Z,76.20
2019-03-18T22:53:51.140Z,77.60
2019-03-18T22:56:19.935Z,77.10
2019-03-18T22:58:48.703Z,77.20
2019-03-18T23:01:20.052Z,77.30
2019-03-18T23:03:48.864Z,77.70
2019-03-18T23:06:17.598Z,77.40
2019-03-18T23:08:48.793Z,77.70
2019-03-18T23:11:16.923Z,77.90
2019-03-18T23:13:45.633Z,77.70
2019-03-18T23:16:14.548Z,77.90
2019-03-18T23:18:43.277Z,77.70
2019-03-18T23:21:11.998Z,78.30
2019-03-18T23:23:40.734Z,79.10
2019-03-18T23:26:09.526Z,78.70
2019-03-18T23:28:38.250Z,79.30
2019-03-18T23:31:06.963Z,79.20
2019-03-18T23:33:35.686Z,79.50
2019-03-18T23:36:04.427Z,79.70
2019-03-18T23:38:33.140Z,80.30
2019-03-18T23:41:01.871Z,80.10
2019-03-18T23:43:30.669Z,80.20
2019-03-18T23:45:59.388Z,80.40
2019-03-18T23:48:28.088Z,81.00
2019-03-18T23:50:56.825Z,80.60
2019-03-18T23:53:25.534Z,80.00
2019-03-18T23:55:54.251Z,80.40
2019-03-18T23:58:22.979Z,80.40
